地図

経路データ

SID SEASON NUMBER BASIN SUBBASIN NAME ISO_TIME NATURE LAT LON WMO_WIND WMO_PRES WMO_AGENCY TRACK_TYPE DIST2LAND LANDFALL IFLAG USA_AGENCY USA_ATCF_ID USA_LAT USA_LON USA_RECORD USA_STATUS USA_WIND USA_PRES USA_SSHS USA_R34_NE USA_R34_SE USA_R34_SW USA_R34_NW USA_R50_NE USA_R50_SE USA_R50_SW USA_R50_NW USA_R64_NE USA_R64_SE USA_R64_SW USA_R64_NW USA_POCI USA_ROCI USA_RMW USA_EYE TOKYO_LAT TOKYO_LON TOKYO_GRADE TOKYO_WIND TOKYO_PRES TOKYO_R50_DIR TOKYO_R50_LONG TOKYO_R50_SHORT TOKYO_R30_DIR TOKYO_R30_LONG TOKYO_R30_SHORT TOKYO_LAND CMA_LAT CMA_LON CMA_CAT CMA_WIND CMA_PRES HKO_LAT HKO_LON HKO_CAT HKO_WIND HKO_PRES NEWDELHI_LAT NEWDELHI_LON NEWDELHI_GRADE NEWDELHI_WIND NEWDELHI_PRES NEWDELHI_CI NEWDELHI_DP NEWDELHI_POCI REUNION_LAT REUNION_LON REUNION_TYPE REUNION_WIND REUNION_PRES REUNION_TNUM REUNION_CI REUNION_RMW REUNION_R34_NE REUNION_R34_SE REUNION_R34_SW REUNION_R34_NW REUNION_R50_NE REUNION_R50_SE REUNION_R50_SW REUNION_R50_NW REUNION_R64_NE REUNION_R64_SE REUNION_R64_SW REUNION_R64_NW BOM_LAT BOM_LON BOM_TYPE BOM_WIND BOM_PRES BOM_TNUM BOM_CI BOM_RMW BOM_R34_NE BOM_R34_SE BOM_R34_SW BOM_R34_NW BOM_R50_NE BOM_R50_SE BOM_R50_SW BOM_R50_NW BOM_R64_NE BOM_R64_SE BOM_R64_SW BOM_R64_NW BOM_ROCI BOM_POCI BOM_EYE BOM_POS_METHOD BOM_PRES_METHOD NADI_LAT NADI_LON NADI_CAT NADI_WIND NADI_PRES WELLINGTON_LAT WELLINGTON_LON WELLINGTON_WIND WELLINGTON_PRES DS824_LAT DS824_LON DS824_STAGE DS824_WIND DS824_PRES TD9636_LAT TD9636_LON TD9636_STAGE TD9636_WIND TD9636_PRES TD9635_LAT TD9635_LON TD9635_WIND TD9635_PRES TD9635_ROCI NEUMANN_LAT NEUMANN_LON NEUMANN_CLASS NEUMANN_WIND NEUMANN_PRES MLC_LAT MLC_LON MLC_CLASS MLC_WIND MLC_PRES USA_GUST BOM_GUST BOM_GUST_PER REUNION_GUST REUNION_GUST_PER USA_SEAHGT USA_SEARAD_NE USA_SEARAD_SE USA_SEARAD_SW USA_SEARAD_NW STORM_SPEED STORM_DIR
1889307N12132 1889 38 WP MM NOT_NAMED 1889-11-02 16:00:00 NR 12.4000 132.000 main 693 518 __________O___ -1 12.4000 132.000 7 51 275
1889307N12132 1889 38 WP MM NOT_NAMED 1889-11-02 18:00:00 NR 12.5435 130.269 main 518 256 __________P___ -1 12.5435 130.269 7 50 275
1889307N12132 1889 38 WP MM NOT_NAMED 1889-11-02 21:00:00 NR 12.7303 127.776 main 256 62 __________P___ -1 12.7303 127.776 7 46 274
1889307N12132 1889 38 WP MM NOT_NAMED 1889-11-03 00:00:00 NR 12.8756 125.573 main 62 0 __________P___ -1 12.8756 125.573 7 38 274
1889307N12132 1889 38 WP MM NOT_NAMED 1889-11-03 03:00:00 NR 12.9763 123.842 main 0 0 __________P___ -1 12.9763 123.842 7 32 273
1889307N12132 1889 38 WP MM NOT_NAMED 1889-11-03 04:00:00 NR 13.0000 123.400 main 0 0 __________O___ -1 13.0000 123.400 7 22 273
1889307N12132 1889 38 WP MM NOT_NAMED 1889-11-03 06:00:00 NR 13.0339 122.737 main 22 22 __________P___ -1 13.0339 122.737 7 14 273
1889307N12132 1889 38 WP MM NOT_NAMED 1889-11-03 09:00:00 NR 13.0616 122.184 main 44 44 __________P___ -1 13.0616 122.184 7 8 273
1889307N12132 1889 38 WP MM NOT_NAMED 1889-11-03 12:00:00 NR 13.0764 121.962 main 55 44 __________P___ -1 13.0764 121.962 7 3 275
1889307N12132 1889 38 WP MM NOT_NAMED 1889-11-03 15:00:00 NR 13.0922 121.851 main 44 34 __________P___ -1 13.0922 121.851 7 2 279
1889307N12132 1889 38 WP MM NOT_NAMED 1889-11-03 16:00:00 NR 13.1000 121.800 main 34 10 __________O___ -1 13.1000 121.800 7 6 276
1889307N12132 1889 38 WP MM NOT_NAMED 1889-11-03 18:00:00 NR 13.1275 121.525 main 10 0 __________P___ -1 13.1275 121.525 7 8 276
1889307N12132 1889 38 WP MM NOT_NAMED 1889-11-03 21:00:00 NR 13.1751 121.106 main 0 0 __________P___ -1 13.1751 121.106 7 8 277
1889307N12132 1889 38 WP MM NOT_NAMED 1889-11-04 00:00:00 NR 13.2276 120.680 main 0 0 __________P___ -1 13.2276 120.680 7 8 277
1889307N12132 1889 38 WP MM NOT_NAMED 1889-11-04 03:00:00 NR 13.2820 120.246 main 15 15 __________P___ -1 13.2820 120.246 7 9 277
1889307N12132 1889 38 WP MM NOT_NAMED 1889-11-04 04:00:00 NR 13.3000 120.100 main 24 24 __________O___ -1 13.3000 120.100 4 9 275
1889307N12132 1889 38 WP MM NOT_NAMED 1889-11-04 06:00:00 NR 13.3201 119.805 main 55 55 __________P___ -1 13.3201 119.805 4 9 274
1889307N12132 1889 38 WP MM NOT_NAMED 1889-11-04 09:00:00 NR 13.3500 119.357 main 97 108 __________P___ -1 13.3500 119.357 4 9 275
1889307N12132 1889 38 WP MM NOT_NAMED 1889-11-04 12:00:00 NR 13.3936 118.905 main 151 151 __________P___ -1 13.3936 118.905 4 9 278
1889307N12132 1889 38 WP MM NOT_NAMED 1889-11-04 15:00:00 NR 13.4665 118.451 main 195 205 __________P___ -1 13.4665 118.451 4 9 280
1889307N12132 1889 38 WP MM NOT_NAMED 1889-11-04 16:00:00 NR 13.5000 118.300 main 216 216 __________O___ -1 13.5000 118.300 4 9 286
1889307N12132 1889 38 WP MM NOT_NAMED 1889-11-04 18:00:00 NR 13.5986 117.990 main 249 249 __________P___ -1 13.5986 117.990 4 10 290
1889307N12132 1889 38 WP MM NOT_NAMED 1889-11-04 21:00:00 NR 13.7783 117.524 main 301 301 __________P___ -1 13.7783 117.524 4 10 293
1889307N12132 1889 38 WP MM NOT_NAMED 1889-11-05 00:00:00 NR 13.9711 117.069 main 335 345 __________P___ -1 13.9711 117.069 4 9 293
1889307N12132 1889 38 WP MM NOT_NAMED 1889-11-05 03:00:00 NR 14.1489 116.637 main 383 379 __________P___ -1 14.1489 116.637 4 9 293
1889307N12132 1889 38 WP MM NOT_NAMED 1889-11-05 04:00:00 NR 14.2000 116.500 main 389 389 __________O___ -1 14.2000 116.500 4 8 287
1889307N12132 1889 38 WP MM NOT_NAMED 1889-11-05 06:00:00 NR 14.2673 116.246 main 416 416 __________P___ -1 14.2673 116.246 4 7 284
1889307N12132 1889 38 WP MM NOT_NAMED 1889-11-05 09:00:00 NR 14.3431 115.891 main 447 444 __________P___ -1 14.3431 115.891 4 7 282
1889307N12132 1889 38 WP MM NOT_NAMED 1889-11-05 12:00:00 NR 14.4054 115.552 main 475 485 __________P___ -1 14.4054 115.552 4 7 281
1889307N12132 1889 38 WP MM NOT_NAMED 1889-11-05 15:00:00 NR 14.4731 115.215 main 511 511 __________P___ -1 14.4731 115.215 4 7 282
1889307N12132 1889 38 WP MM NOT_NAMED 1889-11-05 16:00:00 NR 14.5000 115.100 main 521 521 __________O___ -1 14.5000 115.100 4 7 285
1889307N12132 1889 38 WP MM NOT_NAMED 1889-11-05 18:00:00 NR 14.5633 114.864 main 538 548 __________P___ -1 14.5633 114.864 4 7 287
1889307N12132 1889 38 WP MM NOT_NAMED 1889-11-05 21:00:00 NR 14.6782 114.496 main 567 527 __________P___ -1 14.6782 114.496 4 8 289
1889307N12132 1889 38 WP MM NOT_NAMED 1889-11-06 00:00:00 NR 14.8103 114.116 main 527 489 __________P___ -1 14.8103 114.116 4 8 290
1889307N12132 1889 38 WP MM NOT_NAMED 1889-11-06 03:00:00 NR 14.9520 113.730 main 489 479 __________P___ -1 14.9520 113.730 4 8 291
1889307N12132 1889 38 WP MM NOT_NAMED 1889-11-06 04:00:00 NR 15.0000 113.600 main 479 __________O___ -1 15.0000 113.600 4 8 291

デジタル台風データ・検索

IBTrACS Databaseについて

本データベースは、米国NOAAが公開する1842年以降の世界の熱帯低気圧のベストトラックデータアーカイブInternational Best Track Archive for Climate Stewardship (IBTrACS)を、ウェブで閲覧しやすい形式に変換したものです。

最終更新日:2021-11-26